Terminal Aerodrome Forecast
Issued by NWS Wilmington, OH

Current Version | Previous Version | Graphics & Text | Print | Product List | Glossary On
Versions: 1 2 3 4 5 6 7 8 9 10 11 12 13 14 15 16 17 18 19 20
000
FTUS41 KILN 211400 AAA
TAFCMH
TAF AMD
KCMH 211457Z 2115/2212 VRB03KT P6SM SCT025 BKN250
      TEMPO 2115/2117 BKN025
     FM211700 09006KT P6SM SCT035
     FM220100 VRB03KT P6SM SKC=

USA.gov is the U.S. government's official web portal to all federal, state and local government web resources and services.